sensor_id;sensor_type;location;lat;lon;timestamp;P1;durP1;ratioP1;P2;durP2;ratioP2
8048;SDS011;20935;42.660;23.342;2022-07-29T00:00:38;9.93;;;9.03;;
8048;SDS011;20935;42.660;23.342;2022-07-29T00:03:04;10.47;;;9.53;;
8048;SDS011;20935;42.660;23.342;2022-07-29T00:05:29;10.10;;;9.23;;
8048;SDS011;20935;42.660;23.342;2022-07-29T00:07:56;11.30;;;9.17;;
8048;SDS011;20935;42.660;23.342;2022-07-29T00:10:22;10.10;;;8.93;;
8048;SDS011;20935;42.660;23.342;2022-07-29T00:12:47;10.63;;;9.60;;
8048;SDS011;20935;42.660;23.342;2022-07-29T00:15:12;10.20;;;9.27;;
8048;SDS011;20935;42.660;23.342;2022-07-29T00:17:38;10.03;;;8.97;;
8048;SDS011;20935;42.660;23.342;2022-07-29T00:20:03;10.70;;;9.60;;
8048;SDS011;20935;42.660;23.342;2022-07-29T00:22:29;10.07;;;9.17;;
8048;SDS011;20935;42.660;23.342;2022-07-29T00:24:57;9.93;;;8.83;;
8048;SDS011;20935;42.660;23.342;2022-07-29T00:27:22;11.77;;;9.23;;
8048;SDS011;20935;42.660;23.342;2022-07-29T00:29:47;10.40;;;9.43;;
8048;SDS011;20935;42.660;23.342;2022-07-29T00:32:12;9.93;;;9.03;;
8048;SDS011;20935;42.660;23.342;2022-07-29T00:34:38;9.87;;;8.87;;
8048;SDS011;20935;42.660;23.342;2022-07-29T00:37:22;10.17;;;9.10;;
8048;SDS011;20935;42.660;23.342;2022-07-29T00:39:47;10.30;;;9.40;;
8048;SDS011;20935;42.660;23.342;2022-07-29T00:42:13;13.50;;;9.77;;
8048;SDS011;20935;42.660;23.342;2022-07-29T00:44:41;11.33;;;10.23;;
8048;SDS011;20935;42.660;23.342;2022-07-29T00:47:07;10.27;;;9.10;;
8048;SDS011;20935;42.660;23.342;2022-07-29T00:49:33;11.40;;;8.33;;
8048;SDS011;20935;42.660;23.342;2022-07-29T00:52:00;9.50;;;8.70;;
8048;SDS011;20935;42.660;23.342;2022-07-29T00:54:25;10.10;;;9.07;;
8048;SDS011;20935;42.660;23.342;2022-07-29T00:56:51;9.17;;;8.27;;
8048;SDS011;20935;42.660;23.342;2022-07-29T00:59:17;10.10;;;8.70;;
8048;SDS011;20935;42.660;23.342;2022-07-29T01:01:42;10.10;;;9.20;;
8048;SDS011;20935;42.660;23.342;2022-07-29T01:04:07;11.30;;;9.90;;
8048;SDS011;20935;42.660;23.342;2022-07-29T01:06:33;10.57;;;9.57;;
8048;SDS011;20935;42.660;23.342;2022-07-29T01:08:58;10.37;;;9.43;;
8048;SDS011;20935;42.660;23.342;2022-07-29T01:11:24;12.17;;;9.83;;
8048;SDS011;20935;42.660;23.342;2022-07-29T01:13:49;10.90;;;9.83;;
8048;SDS011;20935;42.660;23.342;2022-07-29T01:16:21;11.53;;;10.37;;
8048;SDS011;20935;42.660;23.342;2022-07-29T01:18:48;11.07;;;9.47;;
8048;SDS011;20935;42.660;23.342;2022-07-29T01:29:08;11.33;;;10.33;;
8048;SDS011;20935;42.660;23.342;2022-07-29T01:31:41;12.20;;;11.07;;
8048;SDS011;20935;42.660;23.342;2022-07-29T01:34:08;13.43;;;12.03;;
8048;SDS011;20935;42.660;23.342;2022-07-29T01:36:36;12.27;;;11.17;;
8048;SDS011;20935;42.660;23.342;2022-07-29T01:39:04;12.70;;;11.47;;
8048;SDS011;20935;42.660;23.342;2022-07-29T01:41:31;14.90;;;12.53;;
8048;SDS011;20935;42.660;23.342;2022-07-29T01:43:59;12.90;;;11.60;;
8048;SDS011;20935;42.660;23.342;2022-07-29T01:46:51;13.87;;;12.47;;
8048;SDS011;20935;42.660;23.342;2022-07-29T01:49:15;16.23;;;14.40;;
8048;SDS011;20935;42.660;23.342;2022-07-29T01:56:32;15.53;;;13.97;;
8048;SDS011;20935;42.660;23.342;2022-07-29T01:58:58;15.23;;;13.63;;
8048;SDS011;20935;42.660;23.342;2022-07-29T02:01:24;15.77;;;14.27;;
8048;SDS011;20935;42.660;23.342;2022-07-29T02:03:50;15.17;;;13.67;;
8048;SDS011;20935;42.660;23.342;2022-07-29T02:06:17;15.53;;;13.90;;
8048;SDS011;20935;42.660;23.342;2022-07-29T02:08:44;15.33;;;13.93;;
8048;SDS011;20935;42.660;23.342;2022-07-29T02:11:10;15.27;;;13.63;;
8048;SDS011;20935;42.660;23.342;2022-07-29T02:13:36;15.50;;;13.83;;
8048;SDS011;20935;42.660;23.342;2022-07-29T02:16:02;15.10;;;13.60;;
8048;SDS011;20935;42.660;23.342;2022-07-29T02:18:30;14.90;;;13.50;;
8048;SDS011;20935;42.660;23.342;2022-07-29T02:20:55;14.37;;;13.10;;
8048;SDS011;20935;42.660;23.342;2022-07-29T02:23:22;14.53;;;12.57;;
8048;SDS011;20935;42.660;23.342;2022-07-29T02:25:48;15.53;;;13.93;;
8048;SDS011;20935;42.660;23.342;2022-07-29T02:28:14;15.13;;;13.67;;
8048;SDS011;20935;42.660;23.342;2022-07-29T02:30:40;14.97;;;13.30;;
8048;SDS011;20935;42.660;23.342;2022-07-29T02:33:07;14.40;;;13.00;;
8048;SDS011;20935;42.660;23.342;2022-07-29T02:35:33;18.07;;;13.77;;
8048;SDS011;20935;42.660;23.342;2022-07-29T02:37:58;15.37;;;13.77;;
8048;SDS011;20935;42.660;23.342;2022-07-29T02:40:42;14.77;;;13.20;;
8048;SDS011;20935;42.660;23.342;2022-07-29T02:43:08;14.73;;;13.27;;
8048;SDS011;20935;42.660;23.342;2022-07-29T02:45:34;15.20;;;13.53;;
8048;SDS011;20935;42.660;23.342;2022-07-29T02:48:00;14.13;;;12.67;;
8048;SDS011;20935;42.660;23.342;2022-07-29T02:50:32;14.50;;;13.10;;
8048;SDS011;20935;42.660;23.342;2022-07-29T02:53:05;14.27;;;12.87;;
8048;SDS011;20935;42.660;23.342;2022-07-29T02:55:33;11.70;;;10.60;;
8048;SDS011;20935;42.660;23.342;2022-07-29T03:00:27;19.17;;;11.53;;
8048;SDS011;20935;42.660;23.342;2022-07-29T03:02:54;13.60;;;10.20;;
8048;SDS011;20935;42.660;23.342;2022-07-29T03:05:20;10.17;;;9.07;;
8048;SDS011;20935;42.660;23.342;2022-07-29T03:07:47;11.63;;;9.33;;
8048;SDS011;20935;42.660;23.342;2022-07-29T03:10:13;9.67;;;8.60;;
8048;SDS011;20935;42.660;23.342;2022-07-29T03:12:38;10.00;;;8.60;;
8048;SDS011;20935;42.660;23.342;2022-07-29T03:15:05;9.40;;;8.50;;
8048;SDS011;20935;42.660;23.342;2022-07-29T03:17:30;9.60;;;8.67;;
8048;SDS011;20935;42.660;23.342;2022-07-29T03:19:56;8.47;;;7.67;;
8048;SDS011;20935;42.660;23.342;2022-07-29T03:22:22;8.73;;;7.83;;
8048;SDS011;20935;42.660;23.342;2022-07-29T03:24:48;10.43;;;8.90;;
8048;SDS011;20935;42.660;23.342;2022-07-29T03:27:13;8.93;;;8.10;;
8048;SDS011;20935;42.660;23.342;2022-07-29T03:29:39;10.63;;;9.07;;
8048;SDS011;20935;42.660;23.342;2022-07-29T03:32:07;8.83;;;8.03;;
8048;SDS011;20935;42.660;23.342;2022-07-29T03:34:33;10.03;;;9.03;;
8048;SDS011;20935;42.660;23.342;2022-07-29T03:36:58;11.97;;;9.37;;
8048;SDS011;20935;42.660;23.342;2022-07-29T03:39:25;9.97;;;8.97;;
8048;SDS011;20935;42.660;23.342;2022-07-29T03:41:52;13.80;;;10.40;;
8048;SDS011;20935;42.660;23.342;2022-07-29T03:44:18;10.60;;;9.60;;
8048;SDS011;20935;42.660;23.342;2022-07-29T03:46:44;11.40;;;10.20;;
8048;SDS011;20935;42.660;23.342;2022-07-29T03:49:10;11.73;;;10.33;;
8048;SDS011;20935;42.660;23.342;2022-07-29T03:51:36;11.33;;;9.97;;
8048;SDS011;20935;42.660;23.342;2022-07-29T03:54:02;10.60;;;9.27;;
8048;SDS011;20935;42.660;23.342;2022-07-29T03:56:27;10.77;;;9.50;;
8048;SDS011;20935;42.660;23.342;2022-07-29T03:58:53;12.67;;;9.63;;
8048;SDS011;20935;42.660;23.342;2022-07-29T04:01:19;11.10;;;10.13;;
8048;SDS011;20935;42.660;23.342;2022-07-29T04:03:45;15.20;;;10.37;;
8048;SDS011;20935;42.660;23.342;2022-07-29T04:06:17;11.20;;;10.10;;
8048;SDS011;20935;42.660;23.342;2022-07-29T04:08:42;11.50;;;10.43;;
8048;SDS011;20935;42.660;23.342;2022-07-29T04:11:08;13.20;;;11.33;;
8048;SDS011;20935;42.660;23.342;2022-07-29T04:13:35;14.47;;;13.03;;
8048;SDS011;20935;42.660;23.342;2022-07-29T04:16:00;15.03;;;11.90;;
8048;SDS011;20935;42.660;23.342;2022-07-29T04:18:30;11.87;;;10.77;;
8048;SDS011;20935;42.660;23.342;2022-07-29T04:20:55;13.70;;;12.30;;
8048;SDS011;20935;42.660;23.342;2022-07-29T04:23:21;12.43;;;11.13;;
8048;SDS011;20935;42.660;23.342;2022-07-29T04:25:46;11.63;;;10.57;;
8048;SDS011;20935;42.660;23.342;2022-07-29T04:28:11;12.30;;;11.10;;
8048;SDS011;20935;42.660;23.342;2022-07-29T04:30:38;11.37;;;10.00;;
8048;SDS011;20935;42.660;23.342;2022-07-29T04:33:05;10.47;;;9.17;;
8048;SDS011;20935;42.660;23.342;2022-07-29T04:35:31;11.30;;;8.97;;
8048;SDS011;20935;42.660;23.342;2022-07-29T04:37:58;11.50;;;8.17;;
8048;SDS011;20935;42.660;23.342;2022-07-29T04:40:23;9.63;;;8.70;;
8048;SDS011;20935;42.660;23.342;2022-07-29T04:42:48;9.20;;;7.87;;
8048;SDS011;20935;42.660;23.342;2022-07-29T04:45:14;9.77;;;7.50;;
8048;SDS011;20935;42.660;23.342;2022-07-29T04:47:39;8.80;;;7.97;;
8048;SDS011;20935;42.660;23.342;2022-07-29T04:50:05;7.67;;;6.93;;
8048;SDS011;20935;42.660;23.342;2022-07-29T04:52:32;8.60;;;7.87;;
8048;SDS011;20935;42.660;23.342;2022-07-29T04:54:57;8.87;;;7.27;;
8048;SDS011;20935;42.660;23.342;2022-07-29T04:57:22;7.90;;;7.00;;
8048;SDS011;20935;42.660;23.342;2022-07-29T04:59:47;8.73;;;7.07;;
8048;SDS011;20935;42.660;23.342;2022-07-29T05:02:13;7.33;;;6.63;;
8048;SDS011;20935;42.660;23.342;2022-07-29T05:04:38;8.23;;;7.40;;
8048;SDS011;20935;42.660;23.342;2022-07-29T05:07:06;8.60;;;7.73;;
8048;SDS011;20935;42.660;23.342;2022-07-29T05:09:31;7.93;;;7.13;;
8048;SDS011;20935;42.660;23.342;2022-07-29T05:11:57;7.93;;;7.13;;
8048;SDS011;20935;42.660;23.342;2022-07-29T05:14:22;9.77;;;7.50;;
8048;SDS011;20935;42.660;23.342;2022-07-29T05:16:48;8.40;;;7.10;;
8048;SDS011;20935;42.660;23.342;2022-07-29T05:19:15;12.67;;;8.07;;
8048;SDS011;20935;42.660;23.342;2022-07-29T05:21:41;8.20;;;7.50;;
8048;SDS011;20935;42.660;23.342;2022-07-29T05:24:06;8.47;;;7.60;;
8048;SDS011;20935;42.660;23.342;2022-07-29T05:26:31;9.10;;;7.20;;
8048;SDS011;20935;42.660;23.342;2022-07-29T05:28:56;8.93;;;6.83;;
8048;SDS011;20935;42.660;23.342;2022-07-29T05:31:22;7.80;;;6.60;;
8048;SDS011;20935;42.660;23.342;2022-07-29T05:33:47;10.10;;;7.63;;
8048;SDS011;20935;42.660;23.342;2022-07-29T05:36:12;7.70;;;7.00;;
8048;SDS011;20935;42.660;23.342;2022-07-29T05:38:38;8.50;;;7.60;;
8048;SDS011;20935;42.660;23.342;2022-07-29T05:41:04;7.90;;;7.03;;
8048;SDS011;20935;42.660;23.342;2022-07-29T05:43:29;12.03;;;7.13;;
8048;SDS011;20935;42.660;23.342;2022-07-29T05:45:55;9.43;;;7.97;;
8048;SDS011;20935;42.660;23.342;2022-07-29T05:48:20;9.53;;;7.63;;
8048;SDS011;20935;42.660;23.342;2022-07-29T05:50:45;9.87;;;7.70;;
8048;SDS011;20935;42.660;23.342;2022-07-29T05:53:11;11.33;;;8.10;;
8048;SDS011;20935;42.660;23.342;2022-07-29T05:55:36;9.17;;;7.83;;
8048;SDS011;20935;42.660;23.342;2022-07-29T05:58:01;7.93;;;7.13;;
8048;SDS011;20935;42.660;23.342;2022-07-29T06:00:27;8.30;;;7.53;;
8048;SDS011;20935;42.660;23.342;2022-07-29T06:02:52;10.63;;;7.67;;
8048;SDS011;20935;42.660;23.342;2022-07-29T06:05:18;7.93;;;7.23;;
8048;SDS011;20935;42.660;23.342;2022-07-29T06:07:43;16.00;;;8.53;;
8048;SDS011;20935;42.660;23.342;2022-07-29T06:10:08;10.03;;;8.30;;
8048;SDS011;20935;42.660;23.342;2022-07-29T06:12:34;10.83;;;9.03;;
8048;SDS011;20935;42.660;23.342;2022-07-29T06:14:59;10.23;;;7.70;;
8048;SDS011;20935;42.660;23.342;2022-07-29T06:17:24;8.83;;;7.90;;
8048;SDS011;20935;42.660;23.342;2022-07-29T06:19:50;9.93;;;7.33;;
8048;SDS011;20935;42.660;23.342;2022-07-29T06:22:15;7.57;;;6.77;;
8048;SDS011;20935;42.660;23.342;2022-07-29T06:24:42;7.60;;;6.80;;
8048;SDS011;20935;42.660;23.342;2022-07-29T06:27:09;8.80;;;7.10;;
8048;SDS011;20935;42.660;23.342;2022-07-29T06:29:36;8.27;;;6.67;;
8048;SDS011;20935;42.660;23.342;2022-07-29T06:32:05;8.00;;;7.00;;
8048;SDS011;20935;42.660;23.342;2022-07-29T06:34:30;9.40;;;7.13;;
8048;SDS011;20935;42.660;23.342;2022-07-29T06:36:55;9.00;;;7.30;;
8048;SDS011;20935;42.660;23.342;2022-07-29T06:39:21;7.50;;;6.57;;
8048;SDS011;20935;42.660;23.342;2022-07-29T06:41:49;9.40;;;6.80;;
8048;SDS011;20935;42.660;23.342;2022-07-29T06:44:15;6.97;;;6.17;;
8048;SDS011;20935;42.660;23.342;2022-07-29T06:46:41;7.37;;;6.60;;
8048;SDS011;20935;42.660;23.342;2022-07-29T06:49:06;8.23;;;7.33;;
8048;SDS011;20935;42.660;23.342;2022-07-29T06:51:32;8.53;;;7.27;;
8048;SDS011;20935;42.660;23.342;2022-07-29T06:53:57;7.83;;;6.73;;
8048;SDS011;20935;42.660;23.342;2022-07-29T06:56:23;10.20;;;8.03;;
8048;SDS011;20935;42.660;23.342;2022-07-29T06:58:48;7.93;;;7.23;;
8048;SDS011;20935;42.660;23.342;2022-07-29T07:01:14;8.03;;;6.53;;
8048;SDS011;20935;42.660;23.342;2022-07-29T07:03:39;7.57;;;6.40;;
8048;SDS011;20935;42.660;23.342;2022-07-29T07:06:04;7.60;;;6.60;;
8048;SDS011;20935;42.660;23.342;2022-07-29T07:08:30;8.77;;;6.97;;
8048;SDS011;20935;42.660;23.342;2022-07-29T07:10:55;7.97;;;6.43;;
8048;SDS011;20935;42.660;23.342;2022-07-29T07:13:21;8.03;;;6.90;;
8048;SDS011;20935;42.660;23.342;2022-07-29T07:15:47;8.03;;;6.40;;
8048;SDS011;20935;42.660;23.342;2022-07-29T07:18:13;7.90;;;6.47;;
8048;SDS011;20935;42.660;23.342;2022-07-29T07:20:38;6.37;;;5.73;;
8048;SDS011;20935;42.660;23.342;2022-07-29T07:23:04;6.77;;;6.07;;
8048;SDS011;20935;42.660;23.342;2022-07-29T07:25:29;6.93;;;5.80;;
8048;SDS011;20935;42.660;23.342;2022-07-29T07:27:54;6.73;;;6.03;;
8048;SDS011;20935;42.660;23.342;2022-07-29T07:30:20;6.10;;;5.60;;
8048;SDS011;20935;42.660;23.342;2022-07-29T07:32:45;6.10;;;5.50;;
8048;SDS011;20935;42.660;23.342;2022-07-29T07:35:10;6.73;;;6.13;;
8048;SDS011;20935;42.660;23.342;2022-07-29T07:37:36;5.80;;;5.20;;
8048;SDS011;20935;42.660;23.342;2022-07-29T07:40:02;6.40;;;5.23;;
8048;SDS011;20935;42.660;23.342;2022-07-29T07:42:28;6.23;;;4.90;;
8048;SDS011;20935;42.660;23.342;2022-07-29T07:44:53;6.77;;;5.30;;
8048;SDS011;20935;42.660;23.342;2022-07-29T07:47:18;6.13;;;5.17;;
8048;SDS011;20935;42.660;23.342;2022-07-29T07:49:48;5.57;;;4.77;;
8048;SDS011;20935;42.660;23.342;2022-07-29T07:52:15;5.33;;;4.77;;
8048;SDS011;20935;42.660;23.342;2022-07-29T07:54:40;5.27;;;4.77;;
8048;SDS011;20935;42.660;23.342;2022-07-29T07:57:05;6.73;;;5.37;;
8048;SDS011;20935;42.660;23.342;2022-07-29T07:59:31;5.17;;;4.77;;
8048;SDS011;20935;42.660;23.342;2022-07-29T08:01:56;6.77;;;5.10;;
8048;SDS011;20935;42.660;23.342;2022-07-29T08:04:22;6.97;;;5.40;;
8048;SDS011;20935;42.660;23.342;2022-07-29T08:06:47;4.77;;;4.27;;
8048;SDS011;20935;42.660;23.342;2022-07-29T08:09:14;5.20;;;4.70;;
8048;SDS011;20935;42.660;23.342;2022-07-29T08:11:40;5.70;;;4.80;;
8048;SDS011;20935;42.660;23.342;2022-07-29T08:14:05;4.83;;;4.43;;
8048;SDS011;20935;42.660;23.342;2022-07-29T08:16:30;6.20;;;4.23;;
8048;SDS011;20935;42.660;23.342;2022-07-29T08:18:55;6.77;;;4.17;;
8048;SDS011;20935;42.660;23.342;2022-07-29T08:21:22;4.97;;;3.93;;
8048;SDS011;20935;42.660;23.342;2022-07-29T08:23:47;4.60;;;4.20;;
8048;SDS011;20935;42.660;23.342;2022-07-29T08:26:18;4.10;;;3.80;;
8048;SDS011;20935;42.660;23.342;2022-07-29T08:28:44;4.67;;;4.27;;
8048;SDS011;20935;42.660;23.342;2022-07-29T08:31:10;6.07;;;4.50;;
8048;SDS011;20935;42.660;23.342;2022-07-29T08:33:36;6.30;;;4.10;;
8048;SDS011;20935;42.660;23.342;2022-07-29T08:36:01;4.23;;;3.83;;
8048;SDS011;20935;42.660;23.342;2022-07-29T08:38:27;6.90;;;4.10;;
8048;SDS011;20935;42.660;23.342;2022-07-29T08:40:52;4.13;;;3.77;;
8048;SDS011;20935;42.660;23.342;2022-07-29T08:43:18;5.20;;;4.77;;
8048;SDS011;20935;42.660;23.342;2022-07-29T08:45:48;4.97;;;4.10;;
8048;SDS011;20935;42.660;23.342;2022-07-29T08:48:14;6.33;;;4.00;;
8048;SDS011;20935;42.660;23.342;2022-07-29T08:50:41;4.43;;;4.00;;
8048;SDS011;20935;42.660;23.342;2022-07-29T08:53:07;4.60;;;4.20;;
8048;SDS011;20935;42.660;23.342;2022-07-29T08:55:32;4.30;;;3.90;;
8048;SDS011;20935;42.660;23.342;2022-07-29T08:57:58;4.83;;;3.83;;
8048;SDS011;20935;42.660;23.342;2022-07-29T09:00:24;3.67;;;3.37;;
8048;SDS011;20935;42.660;23.342;2022-07-29T09:02:51;5.30;;;4.40;;
8048;SDS011;20935;42.660;23.342;2022-07-29T09:05:20;5.17;;;3.60;;
8048;SDS011;20935;42.660;23.342;2022-07-29T09:07:47;4.53;;;3.77;;
8048;SDS011;20935;42.660;23.342;2022-07-29T09:10:13;5.83;;;4.43;;
8048;SDS011;20935;42.660;23.342;2022-07-29T09:12:38;4.50;;;4.10;;
8048;SDS011;20935;42.660;23.342;2022-07-29T09:15:03;6.70;;;4.30;;
8048;SDS011;20935;42.660;23.342;2022-07-29T09:20:11;4.37;;;3.97;;
8048;SDS011;20935;42.660;23.342;2022-07-29T09:22:36;4.37;;;3.97;;
8048;SDS011;20935;42.660;23.342;2022-07-29T09:25:02;3.97;;;3.57;;
8048;SDS011;20935;42.660;23.342;2022-07-29T09:27:28;4.80;;;4.40;;
8048;SDS011;20935;42.660;23.342;2022-07-29T09:32:22;7.43;;;4.40;;
8048;SDS011;20935;42.660;23.342;2022-07-29T09:34:48;5.40;;;4.27;;
8048;SDS011;20935;42.660;23.342;2022-07-29T09:37:25;5.17;;;4.50;;
8048;SDS011;20935;42.660;23.342;2022-07-29T09:39:50;4.80;;;4.40;;
8048;SDS011;20935;42.660;23.342;2022-07-29T09:42:16;5.07;;;4.10;;
8048;SDS011;20935;42.660;23.342;2022-07-29T09:44:52;6.53;;;4.90;;
8048;SDS011;20935;42.660;23.342;2022-07-29T09:47:18;5.60;;;4.50;;
8048;SDS011;20935;42.660;23.342;2022-07-29T09:49:51;8.90;;;4.90;;
8048;SDS011;20935;42.660;23.342;2022-07-29T09:52:16;4.50;;;4.10;;
8048;SDS011;20935;42.660;23.342;2022-07-29T09:54:42;4.43;;;4.03;;
8048;SDS011;20935;42.660;23.342;2022-07-29T09:57:08;7.23;;;5.07;;
8048;SDS011;20935;42.660;23.342;2022-07-29T09:59:37;4.87;;;4.40;;
8048;SDS011;20935;42.660;23.342;2022-07-29T10:02:10;6.00;;;4.90;;
8048;SDS011;20935;42.660;23.342;2022-07-29T10:04:37;4.70;;;4.30;;
8048;SDS011;20935;42.660;23.342;2022-07-29T10:07:03;8.80;;;4.93;;
8048;SDS011;20935;42.660;23.342;2022-07-29T10:09:30;6.93;;;5.00;;
8048;SDS011;20935;42.660;23.342;2022-07-29T10:12:11;5.50;;;4.10;;
8048;SDS011;20935;42.660;23.342;2022-07-29T10:14:38;5.83;;;4.53;;
8048;SDS011;20935;42.660;23.342;2022-07-29T10:17:04;5.23;;;4.73;;
8048;SDS011;20935;42.660;23.342;2022-07-29T10:19:31;8.47;;;4.07;;
8048;SDS011;20935;42.660;23.342;2022-07-29T10:22:00;4.70;;;4.30;;
8048;SDS011;20935;42.660;23.342;2022-07-29T10:24:29;5.93;;;4.10;;
8048;SDS011;20935;42.660;23.342;2022-07-29T10:26:58;5.07;;;4.03;;
8048;SDS011;20935;42.660;23.342;2022-07-29T10:29:23;4.50;;;3.93;;
8048;SDS011;20935;42.660;23.342;2022-07-29T10:34:21;6.00;;;5.28;;
8048;SDS011;20935;42.660;23.342;2022-07-29T10:42:19;5.68;;;5.25;;
8048;SDS011;20935;42.660;23.342;2022-07-29T10:44:46;5.15;;;4.75;;
8048;SDS011;20935;42.660;23.342;2022-07-29T10:47:22;4.78;;;4.25;;
8048;SDS011;20935;42.660;23.342;2022-07-29T10:49:57;4.40;;;4.00;;
8048;SDS011;20935;42.660;23.342;2022-07-29T10:52:23;4.32;;;3.90;;
8048;SDS011;20935;42.660;23.342;2022-07-29T10:54:52;5.30;;;4.90;;
8048;SDS011;20935;42.660;23.342;2022-07-29T10:57:22;5.80;;;5.00;;
8048;SDS011;20935;42.660;23.342;2022-07-29T11:07:28;8.48;;;3.85;;
8048;SDS011;20935;42.660;23.342;2022-07-29T11:15:01;4.30;;;3.95;;
8048;SDS011;20935;42.660;23.342;2022-07-29T11:17:27;6.65;;;4.40;;
8048;SDS011;20935;42.660;23.342;2022-07-29T11:22:37;4.72;;;4.10;;
8048;SDS011;20935;42.660;23.342;2022-07-29T11:25:12;4.40;;;3.80;;
8048;SDS011;20935;42.660;23.342;2022-07-29T11:27:37;5.32;;;4.82;;
8048;SDS011;20935;42.660;23.342;2022-07-29T11:30:04;4.30;;;4.00;;
8048;SDS011;20935;42.660;23.342;2022-07-29T11:32:40;5.05;;;4.53;;
8048;SDS011;20935;42.660;23.342;2022-07-29T11:37:40;5.28;;;4.60;;
8048;SDS011;20935;42.660;23.342;2022-07-29T11:47:35;4.82;;;4.40;;
8048;SDS011;20935;42.660;23.342;2022-07-29T11:50:11;4.95;;;4.30;;
8048;SDS011;20935;42.660;23.342;2022-07-29T11:52:38;7.72;;;4.82;;
8048;SDS011;20935;42.660;23.342;2022-07-29T11:55:08;5.28;;;4.78;;
8048;SDS011;20935;42.660;23.342;2022-07-29T11:57:34;5.35;;;4.85;;
8048;SDS011;20935;42.660;23.342;2022-07-29T11:59:59;4.53;;;4.22;;
8048;SDS011;20935;42.660;23.342;2022-07-29T12:02:25;4.60;;;4.20;;
8048;SDS011;20935;42.660;23.342;2022-07-29T12:05:02;5.10;;;4.70;;
8048;SDS011;20935;42.660;23.342;2022-07-29T12:07:32;5.20;;;4.80;;
8048;SDS011;20935;42.660;23.342;2022-07-29T12:09:58;5.85;;;5.22;;
8048;SDS011;20935;42.660;23.342;2022-07-29T12:12:23;4.68;;;4.38;;
8048;SDS011;20935;42.660;23.342;2022-07-29T12:14:49;5.47;;;5.00;;
8048;SDS011;20935;42.660;23.342;2022-07-29T12:17:33;6.82;;;5.80;;
8048;SDS011;20935;42.660;23.342;2022-07-29T12:20:00;5.93;;;5.43;;
8048;SDS011;20935;42.660;23.342;2022-07-29T12:22:26;5.85;;;5.35;;
8048;SDS011;20935;42.660;23.342;2022-07-29T12:24:52;5.60;;;4.80;;
8048;SDS011;20935;42.660;23.342;2022-07-29T12:27:17;6.10;;;5.60;;
8048;SDS011;20935;42.660;23.342;2022-07-29T12:29:43;6.53;;;5.85;;
8048;SDS011;20935;42.660;23.342;2022-07-29T12:32:08;6.22;;;5.30;;
8048;SDS011;20935;42.660;23.342;2022-07-29T12:34:33;7.15;;;4.85;;
8048;SDS011;20935;42.660;23.342;2022-07-29T12:36:59;6.47;;;5.18;;
8048;SDS011;20935;42.660;23.342;2022-07-29T12:39:24;12.75;;;5.38;;
8048;SDS011;20935;42.660;23.342;2022-07-29T12:41:52;6.18;;;4.97;;
8048;SDS011;20935;42.660;23.342;2022-07-29T12:44:18;5.90;;;5.40;;
8048;SDS011;20935;42.660;23.342;2022-07-29T12:46:43;5.90;;;5.38;;
8048;SDS011;20935;42.660;23.342;2022-07-29T12:49:11;5.60;;;4.97;;
8048;SDS011;20935;42.660;23.342;2022-07-29T12:51:46;5.93;;;5.43;;
8048;SDS011;20935;42.660;23.342;2022-07-29T12:54:12;6.30;;;5.10;;
8048;SDS011;20935;42.660;23.342;2022-07-29T12:56:41;6.63;;;6.03;;
8048;SDS011;20935;42.660;23.342;2022-07-29T12:59:13;6.00;;;5.45;;
8048;SDS011;20935;42.660;23.342;2022-07-29T13:01:39;5.78;;;5.10;;
8048;SDS011;20935;42.660;23.342;2022-07-29T13:04:04;5.88;;;5.38;;
8048;SDS011;20935;42.660;23.342;2022-07-29T13:09:02;5.68;;;5.18;;
8048;SDS011;20935;42.660;23.342;2022-07-29T13:11:31;6.47;;;5.97;;
8048;SDS011;20935;42.660;23.342;2022-07-29T13:13:57;7.05;;;5.88;;
8048;SDS011;20935;42.660;23.342;2022-07-29T13:16:22;6.13;;;5.53;;
8048;SDS011;20935;42.660;23.342;2022-07-29T13:18:47;6.35;;;5.65;;
8048;SDS011;20935;42.660;23.342;2022-07-29T13:21:14;7.75;;;5.25;;
8048;SDS011;20935;42.660;23.342;2022-07-29T13:23:40;6.05;;;5.55;;
8048;SDS011;20935;42.660;23.342;2022-07-29T13:26:06;6.93;;;6.28;;
8048;SDS011;20935;42.660;23.342;2022-07-29T13:28:32;5.80;;;5.40;;
8048;SDS011;20935;42.660;23.342;2022-07-29T13:30:57;5.80;;;5.30;;
8048;SDS011;20935;42.660;23.342;2022-07-29T13:33:23;6.72;;;5.63;;
8048;SDS011;20935;42.660;23.342;2022-07-29T13:35:48;6.57;;;5.68;;
8048;SDS011;20935;42.660;23.342;2022-07-29T13:38:14;5.72;;;5.22;;
8048;SDS011;20935;42.660;23.342;2022-07-29T13:40:40;6.43;;;5.68;;
8048;SDS011;20935;42.660;23.342;2022-07-29T13:43:08;11.50;;;5.45;;
8048;SDS011;20935;42.660;23.342;2022-07-29T13:45:33;5.63;;;5.13;;
8048;SDS011;20935;42.660;23.342;2022-07-29T13:47:58;6.25;;;5.75;;
8048;SDS011;20935;42.660;23.342;2022-07-29T13:50:24;6.55;;;5.28;;
8048;SDS011;20935;42.660;23.342;2022-07-29T13:52:49;8.05;;;5.43;;
8048;SDS011;20935;42.660;23.342;2022-07-29T13:55:15;5.75;;;5.25;;
8048;SDS011;20935;42.660;23.342;2022-07-29T13:57:40;6.05;;;5.45;;
8048;SDS011;20935;42.660;23.342;2022-07-29T14:00:06;6.22;;;5.63;;
8048;SDS011;20935;42.660;23.342;2022-07-29T14:02:31;6.90;;;5.68;;
8048;SDS011;20935;42.660;23.342;2022-07-29T14:04:58;6.57;;;5.78;;
8048;SDS011;20935;42.660;23.342;2022-07-29T14:07:23;5.85;;;5.30;;
8048;SDS011;20935;42.660;23.342;2022-07-29T14:09:49;5.45;;;4.78;;
8048;SDS011;20935;42.660;23.342;2022-07-29T14:12:15;7.40;;;5.47;;
8048;SDS011;20935;42.660;23.342;2022-07-29T14:14:40;5.88;;;5.38;;
8048;SDS011;20935;42.660;23.342;2022-07-29T14:17:06;5.85;;;5.32;;
8048;SDS011;20935;42.660;23.342;2022-07-29T14:19:31;8.73;;;5.72;;
8048;SDS011;20935;42.660;23.342;2022-07-29T14:22:00;6.00;;;5.38;;
8048;SDS011;20935;42.660;23.342;2022-07-29T14:24:25;6.55;;;5.10;;
8048;SDS011;20935;42.660;23.342;2022-07-29T14:26:51;5.55;;;5.07;;
8048;SDS011;20935;42.660;23.342;2022-07-29T14:29:16;5.65;;;5.03;;
8048;SDS011;20935;42.660;23.342;2022-07-29T14:31:41;5.90;;;5.30;;
8048;SDS011;20935;42.660;23.342;2022-07-29T14:34:08;7.03;;;4.93;;
8048;SDS011;20935;42.660;23.342;2022-07-29T14:36:33;5.50;;;5.10;;
8048;SDS011;20935;42.660;23.342;2022-07-29T14:38:59;5.80;;;4.93;;
8048;SDS011;20935;42.660;23.342;2022-07-29T14:41:25;5.45;;;4.95;;
8048;SDS011;20935;42.660;23.342;2022-07-29T14:43:53;5.78;;;5.15;;
8048;SDS011;20935;42.660;23.342;2022-07-29T14:46:18;7.95;;;5.60;;
8048;SDS011;20935;42.660;23.342;2022-07-29T14:48:43;5.10;;;4.70;;
8048;SDS011;20935;42.660;23.342;2022-07-29T14:51:09;5.97;;;5.40;;
8048;SDS011;20935;42.660;23.342;2022-07-29T14:53:35;6.93;;;6.22;;
8048;SDS011;20935;42.660;23.342;2022-07-29T14:56:00;6.55;;;5.85;;
8048;SDS011;20935;42.660;23.342;2022-07-29T14:58:25;5.90;;;5.40;;
8048;SDS011;20935;42.660;23.342;2022-07-29T15:00:51;6.18;;;5.57;;
8048;SDS011;20935;42.660;23.342;2022-07-29T15:03:17;5.90;;;5.20;;
8048;SDS011;20935;42.660;23.342;2022-07-29T15:05:42;6.03;;;5.50;;
8048;SDS011;20935;42.660;23.342;2022-07-29T15:08:07;5.85;;;5.35;;
8048;SDS011;20935;42.660;23.342;2022-07-29T15:10:33;6.07;;;5.50;;
8048;SDS011;20935;42.660;23.342;2022-07-29T15:12:58;5.55;;;5.05;;
8048;SDS011;20935;42.660;23.342;2022-07-29T15:15:24;6.72;;;5.38;;
8048;SDS011;20935;42.660;23.342;2022-07-29T15:17:49;5.90;;;5.40;;
8048;SDS011;20935;42.660;23.342;2022-07-29T15:20:14;5.43;;;4.85;;
8048;SDS011;20935;42.660;23.342;2022-07-29T15:22:40;7.25;;;5.57;;
8048;SDS011;20935;42.660;23.342;2022-07-29T15:25:07;5.95;;;5.40;;
8048;SDS011;20935;42.660;23.342;2022-07-29T15:27:32;6.22;;;5.50;;
8048;SDS011;20935;42.660;23.342;2022-07-29T15:29:58;6.13;;;5.57;;
8048;SDS011;20935;42.660;23.342;2022-07-29T15:32:23;5.97;;;5.38;;